PWSweather.com
Personal Weather Stations
Station Observations
KNCCHINA3
Red Tractor Trail, China Grove, NC 28023

Red Tractor TrailChina Grove, NC 28023

Lat: 35.59751, Lon: -80.60201

Elevation: 800

Station Type: Oregon Scientific WMR 968

http://www.joesweathergarage.com

Latest ConditionsUpdated 9:59:33 AM EDT Friday, Apr 29, 2016
Currently Today's Max Today's Min Today's Average
Temperature 68.2°F20.1°C 68.2°F20.1°C 62.1°F16.7°C 63.8°F17.7°C
Dew Point 67.6°F19.8°C 67.6°F19.8°C 62.1°F16.7°C 63.8°F17.7°C
Winds 3.5 mph NE5.6 kmh NE 5.3 mph NNE8.5 kmh NNE - 2.0 mph 3.2 kmh
Wind Gusts 5.0 mph8.0 kmh 8.6 mph13.8 kmh - -
Humidity 98% 100% 98% 100%
Pressure 30.03 in1016.9 mb 30.03 in1016.9 mb 29.91 in1012.9 mb -
Precipitation - 0.04 in1.0 mm - -
Hour Temp Dew Point Humidity Winds Wind Gusts Pressure Precip Precip Rate Daily Precip Total
09:59 AM 68.2°F20.1°C 67.6°F19.8°C 98% 3.5 mph NE5.6 kmh NE 5.0 mph8.0 kmh 30.03 in1016.9 mb 0.00 in0.0 mm 0.00 in0.0 mm 0.04 in1.0 mm
09:54 AM 67.8°F19.9°C 67.5°F19.7°C 99% 3.3 mph NE5.3 kmh NE 5.0 mph8.0 kmh 30.03 in1016.9 mb 0.00 in0.0 mm 0.00 in0.0 mm 0.04 in1.0 mm
09:49 AM 67.5°F19.7°C 67.2°F19.6°C 99% 3.2 mph NE5.1 kmh NE 5.4 mph8.7 kmh 30.03 in1016.9 mb 0.00 in0.0 mm 0.00 in0.0 mm 0.04 in1.0 mm
09:44 AM 67.3°F19.6°C 67.0°F19.4°C 99% 4.1 mph NNE6.6 kmh NNE 5.4 mph8.7 kmh 30.03 in1016.9 mb 0.00 in0.0 mm 0.00 in0.0 mm 0.04 in1.0 mm
09:39 AM 66.9°F19.4°C 66.9°F19.4°C 100% 3.9 mph NE6.3 kmh NE 5.8 mph9.3 kmh 30.03 in1016.9 mb 0.00 in0.0 mm 0.00 in0.0 mm 0.04 in1.0 mm
09:34 AM 66.4°F19.1°C 66.4°F19.1°C 100% 5.3 mph NNE8.5 kmh NNE 5.8 mph9.3 kmh 30.03 in1016.9 mb 0.00 in0.0 mm 0.00 in0.0 mm 0.04 in1.0 mm
09:28 AM 66.2°F19.0°C 66.2°F19.0°C 100% 2.1 mph NNE3.4 kmh NNE 2.6 mph4.2 kmh 30.03 in1016.9 mb 0.00 in0.0 mm 0.00 in0.0 mm 0.04 in1.0 mm
09:23 AM 66.0°F18.9°C 66.0°F18.9°C 100% 2.2 mph NNE3.5 kmh NNE 4.4 mph7.1 kmh 30.03 in1016.9 mb 0.00 in0.0 mm 0.00 in0.0 mm 0.04 in1.0 mm
09:18 AM 65.8°F18.8°C 65.8°F18.8°C 100% 1.8 mph NNE2.9 kmh NNE 5.8 mph9.3 kmh 30.03 in1016.9 mb 0.00 in0.0 mm 0.00 in0.0 mm 0.04 in1.0 mm
09:13 AM 65.5°F18.6°C 65.5°F18.6°C 100% 2.5 mph NNE4.0 kmh NNE 5.8 mph9.3 kmh 30.03 in1016.9 mb 0.00 in0.0 mm 0.00 in0.0 mm 0.04 in1.0 mm
09:08 AM 65.3°F18.5°C 65.3°F18.5°C 100% 3.6 mph NNE5.8 kmh NNE 5.8 mph9.3 kmh 30.03 in1016.9 mb 0.00 in0.0 mm 0.00 in0.0 mm 0.04 in1.0 mm
08:59 AM 64.8°F18.2°C 64.8°F18.2°C 100% 4.2 mph NE6.8 kmh NE 5.8 mph9.3 kmh 30.03 in1016.9 mb 0.00 in0.0 mm 0.00 in0.0 mm 0.04 in1.0 mm
08:54 AM 64.4°F18.0°C 64.4°F18.0°C 100% 2.6 mph NNE4.2 kmh NNE 5.8 mph9.3 kmh 30.03 in1016.9 mb 0.00 in0.0 mm 0.00 in0.0 mm 0.04 in1.0 mm
08:48 AM 64.2°F17.9°C 64.2°F17.9°C 100% 4.0 mph NNE6.4 kmh NNE 5.0 mph8.0 kmh 30.03 in1016.9 mb 0.00 in0.0 mm 0.00 in0.0 mm 0.04 in1.0 mm
08:43 AM 64.2°F17.9°C 64.2°F17.9°C 100% 2.9 mph NNE4.7 kmh NNE 5.0 mph8.0 kmh 30.03 in1016.9 mb 0.00 in0.0 mm 0.00 in0.0 mm 0.04 in1.0 mm
08:37 AM 64.0°F17.8°C 64.0°F17.8°C 100% 2.7 mph NNE4.3 kmh NNE 5.0 mph8.0 kmh 30.03 in1016.9 mb 0.00 in0.0 mm 0.00 in0.0 mm 0.04 in1.0 mm
08:32 AM 63.9°F17.7°C 63.9°F17.7°C 100% Calm Calm 4.0 mph6.4 kmh 30.03 in1016.9 mb 0.00 in0.0 mm 0.00 in0.0 mm 0.04 in1.0 mm
08:25 AM 63.9°F17.7°C 63.9°F17.7°C 100% 2.3 mph NNE3.7 kmh NNE 5.8 mph9.3 kmh 30.03 in1016.9 mb 0.00 in0.0 mm 0.00 in0.0 mm 0.04 in1.0 mm
08:20 AM 63.7°F17.6°C 63.7°F17.6°C 100% 5.1 mph NE8.2 kmh NE 5.8 mph9.3 kmh 30.03 in1016.9 mb 0.00 in0.0 mm 0.00 in0.0 mm 0.04 in1.0 mm
08:15 AM 63.1°F17.3°C 63.1°F17.3°C 100% 3.6 mph NE5.8 kmh NE 5.8 mph9.3 kmh 30.03 in1016.9 mb 0.00 in0.0 mm 0.00 in0.0 mm 0.04 in1.0 mm
08:10 AM 63.1°F17.3°C 63.1°F17.3°C 100% 4.3 mph NE6.9 kmh NE 5.8 mph9.3 kmh 30.03 in1016.9 mb 0.00 in0.0 mm 0.00 in0.0 mm 0.04 in1.0 mm
08:05 AM 63.1°F17.3°C 63.1°F17.3°C 100% 3.6 mph NE5.8 kmh NE 6.2 mph10.0 kmh 30.03 in1016.9 mb 0.00 in0.0 mm 0.00 in0.0 mm 0.04 in1.0 mm
08:00 AM 63.0°F17.2°C 63.0°F17.2°C 100% 4.8 mph NNE7.7 kmh NNE 6.2 mph10.0 kmh 30.03 in1016.9 mb 0.00 in0.0 mm 0.00 in0.0 mm 0.04 in1.0 mm
07:54 AM 63.0°F17.2°C 63.0°F17.2°C 100% 3.1 mph NE5.0 kmh NE 4.4 mph7.1 kmh 30.03 in1016.9 mb 0.00 in0.0 mm 0.00 in0.0 mm 0.04 in1.0 mm
07:49 AM 63.0°F17.2°C 63.0°F17.2°C 100% Calm Calm -- 30.00 in1015.9 mb 0.00 in0.0 mm 0.00 in0.0 mm 0.04 in1.0 mm
07:44 AM 62.8°F17.1°C 62.8°F17.1°C 100% Calm Calm -- 30.00 in1015.9 mb 0.00 in0.0 mm 0.00 in0.0 mm 0.04 in1.0 mm
07:39 AM 62.6°F17.0°C 62.6°F17.0°C 100% Calm Calm 3.2 mph5.1 kmh 30.00 in1015.9 mb 0.00 in0.0 mm 0.00 in0.0 mm 0.04 in1.0 mm
07:34 AM 62.4°F16.9°C 62.4°F16.9°C 100% 2.2 mph NE3.5 kmh NE 5.0 mph8.0 kmh 30.03 in1016.9 mb 0.00 in0.0 mm 0.00 in0.0 mm 0.04 in1.0 mm
07:29 AM 62.2°F16.8°C 62.2°F16.8°C 100% 3.6 mph NE5.8 kmh NE 5.0 mph8.0 kmh 30.03 in1016.9 mb 0.00 in0.0 mm 0.00 in0.0 mm 0.04 in1.0 mm
07:24 AM 62.2°F16.8°C 62.2°F16.8°C 100% Calm Calm 5.0 mph8.0 kmh 30.03 in1016.9 mb 0.00 in0.0 mm 0.00 in0.0 mm 0.04 in1.0 mm
07:19 AM 62.1°F16.7°C 62.1°F16.7°C 100% 3.8 mph NNE6.1 kmh NNE 5.0 mph8.0 kmh 30.03 in1016.9 mb 0.00 in0.0 mm 0.00 in0.0 mm 0.04 in1.0 mm
07:11 AM 62.1°F16.7°C 62.1°F16.7°C 100% Calm Calm 5.8 mph9.3 kmh 30.03 in1016.9 mb 0.00 in0.0 mm 0.00 in0.0 mm 0.04 in1.0 mm
07:06 AM 62.1°F16.7°C 62.1°F16.7°C 100% 2.3 mph NNE3.7 kmh NNE 5.8 mph9.3 kmh 30.03 in1016.9 mb 0.00 in0.0 mm 0.00 in0.0 mm 0.04 in1.0 mm
07:01 AM 62.1°F16.7°C 62.1°F16.7°C 100% 4.8 mph NNE7.7 kmh NNE 5.8 mph9.3 kmh 30.00 in1015.9 mb 0.00 in0.0 mm 0.00 in0.0 mm 0.04 in1.0 mm
06:56 AM 62.1°F16.7°C 62.1°F16.7°C 100% 3.7 mph NE6.0 kmh NE 5.4 mph8.7 kmh 30.00 in1015.9 mb 0.00 in0.0 mm 0.00 in0.0 mm 0.04 in1.0 mm
06:51 AM 62.2°F16.8°C 62.2°F16.8°C 100% 3.3 mph NNE5.3 kmh NNE 5.0 mph8.0 kmh 30.00 in1015.9 mb 0.00 in0.0 mm 0.00 in0.0 mm 0.04 in1.0 mm
06:46 AM 62.2°F16.8°C 62.2°F16.8°C 100% 2.1 mph NNE3.4 kmh NNE 4.0 mph6.4 kmh 30.00 in1015.9 mb 0.00 in0.0 mm 0.00 in0.0 mm 0.04 in1.0 mm
06:41 AM 62.2°F16.8°C 62.2°F16.8°C 100% Calm Calm 6.8 mph10.9 kmh 30.00 in1015.9 mb 0.00 in0.0 mm 0.00 in0.0 mm 0.04 in1.0 mm
06:36 AM 62.2°F16.8°C 62.2°F16.8°C 100% 2.4 mph NNE3.9 kmh NNE 6.8 mph10.9 kmh 30.00 in1015.9 mb 0.00 in0.0 mm 0.00 in0.0 mm 0.04 in1.0 mm
06:31 AM 62.4°F16.9°C 62.4°F16.9°C 100% 3.8 mph NNE6.1 kmh NNE 5.0 mph8.0 kmh 30.00 in1015.9 mb 0.00 in0.0 mm 0.00 in0.0 mm 0.04 in1.0 mm
06:26 AM 62.4°F16.9°C 62.4°F16.9°C 100% 3.9 mph NE6.3 kmh NE 4.0 mph6.4 kmh 30.00 in1015.9 mb 0.00 in0.0 mm 0.00 in0.0 mm 0.04 in1.0 mm
06:21 AM 62.4°F16.9°C 62.4°F16.9°C 100% 2.3 mph E3.7 kmh E 5.8 mph9.3 kmh 30.00 in1015.9 mb 0.00 in0.0 mm 0.00 in0.0 mm 0.04 in1.0 mm
06:16 AM 62.6°F17.0°C 62.6°F17.0°C 100% 2.8 mph NE4.5 kmh NE 5.8 mph9.3 kmh 30.00 in1015.9 mb 0.00 in0.0 mm 0.00 in0.0 mm 0.04 in1.0 mm
06:10 AM 62.6°F17.0°C 62.6°F17.0°C 100% 2.3 mph NE3.7 kmh NE 5.8 mph9.3 kmh 30.00 in1015.9 mb 0.00 in0.0 mm 0.00 in0.0 mm 0.04 in1.0 mm
06:05 AM 62.8°F17.1°C 62.8°F17.1°C 100% 4.3 mph NE6.9 kmh NE 5.8 mph9.3 kmh 30.00 in1015.9 mb 0.00 in0.0 mm 0.00 in0.0 mm 0.04 in1.0 mm
05:59 AM 63.0°F17.2°C 63.0°F17.2°C 100% 2.0 mph NE3.2 kmh NE 6.2 mph10.0 kmh 30.00 in1015.9 mb 0.00 in0.0 mm 0.00 in0.0 mm 0.04 in1.0 mm
05:54 AM 63.1°F17.3°C 63.1°F17.3°C 100% 3.3 mph ENE5.3 kmh ENE 5.0 mph8.0 kmh 30.00 in1015.9 mb 0.00 in0.0 mm 0.00 in0.0 mm 0.04 in1.0 mm
05:49 AM 63.3°F17.4°C 63.3°F17.4°C 100% 2.4 mph E3.9 kmh E 4.4 mph7.1 kmh 30.00 in1015.9 mb 0.00 in0.0 mm 0.00 in0.0 mm 0.04 in1.0 mm
05:44 AM 63.5°F17.5°C 63.5°F17.5°C 100% 3.1 mph NE5.0 kmh NE 4.4 mph7.1 kmh 30.00 in1015.9 mb 0.00 in0.0 mm 0.00 in0.0 mm 0.04 in1.0 mm
05:39 AM 63.5°F17.5°C 63.5°F17.5°C 100% 2.2 mph ENE3.5 kmh ENE 4.0 mph6.4 kmh 30.00 in1015.9 mb 0.00 in0.0 mm 0.00 in0.0 mm 0.04 in1.0 mm
05:34 AM 63.5°F17.5°C 63.5°F17.5°C 100% Calm Calm 4.0 mph6.4 kmh 29.97 in1014.9 mb 0.00 in0.0 mm 0.00 in0.0 mm 0.04 in1.0 mm
05:29 AM 63.7°F17.6°C 63.7°F17.6°C 100% Calm Calm -- 29.97 in1014.9 mb 0.00 in0.0 mm 0.00 in0.0 mm 0.04 in1.0 mm
05:24 AM 63.7°F17.6°C 63.7°F17.6°C 100% Calm Calm 1.8 mph2.9 kmh 29.97 in1014.9 mb 0.00 in0.0 mm 0.00 in0.0 mm 0.04 in1.0 mm
05:19 AM 63.7°F17.6°C 63.7°F17.6°C 100% Calm Calm 5.4 mph8.7 kmh 29.97 in1014.9 mb 0.00 in0.0 mm 0.00 in0.0 mm 0.04 in1.0 mm
05:14 AM 63.7°F17.6°C 63.7°F17.6°C 100% 3.5 mph NE5.6 kmh NE 5.4 mph8.7 kmh 29.97 in1014.9 mb 0.00 in0.0 mm 0.00 in0.0 mm 0.04 in1.0 mm
05:09 AM 63.9°F17.7°C 63.9°F17.7°C 100% 4.6 mph NE7.4 kmh NE 6.2 mph10.0 kmh 29.97 in1014.9 mb 0.00 in0.0 mm 0.00 in0.0 mm 0.04 in1.0 mm
05:04 AM 63.9°F17.7°C 63.9°F17.7°C 100% 5.2 mph NNE8.4 kmh NNE 6.2 mph10.0 kmh 29.97 in1014.9 mb 0.00 in0.0 mm 0.00 in0.0 mm 0.04 in1.0 mm
04:58 AM 63.9°F17.7°C 63.9°F17.7°C 100% 3.3 mph NNE5.3 kmh NNE 5.0 mph8.0 kmh 29.97 in1014.9 mb 0.00 in0.0 mm 0.00 in0.0 mm 0.04 in1.0 mm
04:53 AM 63.9°F17.7°C 63.9°F17.7°C 100% 3.3 mph NNE5.3 kmh NNE 5.0 mph8.0 kmh 29.97 in1014.9 mb 0.00 in0.0 mm 0.00 in0.0 mm 0.04 in1.0 mm
04:47 AM 63.9°F17.7°C 63.9°F17.7°C 100% Calm Calm 2.6 mph4.2 kmh 29.97 in1014.9 mb 0.00 in0.0 mm 0.00 in0.0 mm 0.04 in1.0 mm
04:42 AM 63.9°F17.7°C 63.9°F17.7°C 100% Calm Calm 2.6 mph4.2 kmh 29.97 in1014.9 mb 0.00 in0.0 mm 0.00 in0.0 mm 0.04 in1.0 mm
04:37 AM 63.9°F17.7°C 63.9°F17.7°C 100% 2.4 mph NE3.9 kmh NE 3.2 mph5.1 kmh 29.97 in1014.9 mb 0.00 in0.0 mm 0.00 in0.0 mm 0.04 in1.0 mm
04:32 AM 63.9°F17.7°C 63.9°F17.7°C 100% 2.2 mph NE3.5 kmh NE 3.2 mph5.1 kmh 29.94 in1013.9 mb 0.00 in0.0 mm 0.00 in0.0 mm 0.04 in1.0 mm
04:26 AM 63.9°F17.7°C 63.9°F17.7°C 100% Calm Calm 2.6 mph4.2 kmh 29.94 in1013.9 mb 0.00 in0.0 mm 0.00 in0.0 mm 0.04 in1.0 mm
04:21 AM 63.9°F17.7°C 63.9°F17.7°C 100% Calm Calm 5.0 mph8.0 kmh 29.94 in1013.9 mb 0.04 in1.0 mm 0.00 in0.0 mm 0.04 in1.0 mm
04:16 AM 63.9°F17.7°C 63.9°F17.7°C 100% Calm Calm 5.0 mph8.0 kmh 29.94 in1013.9 mb 0.04 in1.0 mm 0.00 in0.0 mm 0.04 in1.0 mm
04:11 AM 63.9°F17.7°C 63.9°F17.7°C 100% 2.2 mph NE3.5 kmh NE 4.0 mph6.4 kmh 29.94 in1013.9 mb 0.04 in1.0 mm 0.00 in0.0 mm 0.04 in1.0 mm
04:05 AM 63.7°F17.6°C 63.7°F17.6°C 100% 2.3 mph ESE3.7 kmh ESE 3.2 mph5.1 kmh 29.94 in1013.9 mb 0.04 in1.0 mm 0.00 in0.0 mm 0.04 in1.0 mm
04:00 AM 63.7°F17.6°C 63.7°F17.6°C 100% Calm Calm 3.2 mph5.1 kmh 29.94 in1013.9 mb 0.04 in1.0 mm 0.00 in0.0 mm 0.04 in1.0 mm
03:55 AM 63.7°F17.6°C 63.7°F17.6°C 100% Calm Calm -- 29.94 in1013.9 mb 0.04 in1.0 mm 0.00 in0.0 mm 0.04 in1.0 mm
03:50 AM 63.7°F17.6°C 63.7°F17.6°C 100% Calm Calm 5.4 mph8.7 kmh 29.91 in1012.9 mb 0.04 in1.0 mm 0.00 in0.0 mm 0.04 in1.0 mm
03:45 AM 63.7°F17.6°C 63.7°F17.6°C 100% Calm Calm 5.4 mph8.7 kmh 29.91 in1012.9 mb 0.04 in1.0 mm 0.00 in0.0 mm 0.04 in1.0 mm
03:40 AM 63.5°F17.5°C 63.5°F17.5°C 100% 2.7 mph ESE4.3 kmh ESE 4.0 mph6.4 kmh 29.91 in1012.9 mb 0.04 in1.0 mm 0.40 in10.2 mm 0.04 in1.0 mm
03:34 AM 63.5°F17.5°C 63.5°F17.5°C 100% Calm Calm 3.2 mph5.1 kmh 29.94 in1013.9 mb 0.00 in0.0 mm 0.00 in0.0 mm 0.00 in0.0 mm
03:29 AM 63.5°F17.5°C 63.5°F17.5°C 100% 1.8 mph NE2.9 kmh NE 5.8 mph9.3 kmh 29.94 in1013.9 mb 0.00 in0.0 mm 0.00 in0.0 mm 0.00 in0.0 mm
03:24 AM 63.3°F17.4°C 63.3°F17.4°C 100% 3.5 mph E5.6 kmh E 5.8 mph9.3 kmh 29.94 in1013.9 mb 0.00 in0.0 mm 0.00 in0.0 mm 0.00 in0.0 mm
03:19 AM 63.3°F17.4°C 63.3°F17.4°C 100% 3.2 mph ENE5.1 kmh ENE 6.2 mph10.0 kmh 29.94 in1013.9 mb 0.00 in0.0 mm 0.00 in0.0 mm 0.00 in0.0 mm
03:14 AM 63.3°F17.4°C 63.3°F17.4°C 100% Calm Calm 6.2 mph10.0 kmh 29.94 in1013.9 mb 0.00 in0.0 mm 0.00 in0.0 mm 0.00 in0.0 mm
03:09 AM 63.1°F17.3°C 63.1°F17.3°C 100% 3.0 mph NE4.8 kmh NE 6.2 mph10.0 kmh 29.94 in1013.9 mb 0.00 in0.0 mm 0.00 in0.0 mm 0.00 in0.0 mm
03:03 AM 63.1°F17.3°C 63.1°F17.3°C 100% 4.0 mph ENE6.4 kmh ENE 6.2 mph10.0 kmh 29.94 in1013.9 mb 0.00 in0.0 mm 0.00 in0.0 mm 0.00 in0.0 mm
02:58 AM 63.1°F17.3°C 63.1°F17.3°C 100% 3.1 mph ENE5.0 kmh ENE 5.4 mph8.7 kmh 29.94 in1013.9 mb 0.00 in0.0 mm 0.00 in0.0 mm 0.00 in0.0 mm
02:52 AM 63.1°F17.3°C 63.1°F17.3°C 100% 2.5 mph E4.0 kmh E 5.4 mph8.7 kmh 29.94 in1013.9 mb 0.00 in0.0 mm 0.00 in0.0 mm 0.00 in0.0 mm
02:47 AM 63.1°F17.3°C 63.1°F17.3°C 100% 3.3 mph NE5.3 kmh NE 5.4 mph8.7 kmh 29.94 in1013.9 mb 0.00 in0.0 mm 0.00 in0.0 mm 0.00 in0.0 mm
02:41 AM 63.3°F17.4°C 63.3°F17.4°C 100% 1.8 mph NE2.9 kmh NE 5.8 mph9.3 kmh 29.94 in1013.9 mb 0.00 in0.0 mm 0.00 in0.0 mm 0.00 in0.0 mm
02:36 AM 63.3°F17.4°C 63.3°F17.4°C 100% 2.8 mph ENE4.5 kmh ENE 8.6 mph13.8 kmh 29.91 in1012.9 mb 0.00 in0.0 mm 0.00 in0.0 mm 0.00 in0.0 mm
02:30 AM 63.3°F17.4°C 63.3°F17.4°C 100% 4.8 mph E7.7 kmh E 8.6 mph13.8 kmh 29.91 in1012.9 mb 0.00 in0.0 mm 0.00 in0.0 mm 0.00 in0.0 mm
02:25 AM 63.3°F17.4°C 63.3°F17.4°C 100% 2.8 mph ENE4.5 kmh ENE 7.6 mph12.2 kmh 29.91 in1012.9 mb 0.00 in0.0 mm 0.00 in0.0 mm 0.00 in0.0 mm
02:19 AM 63.5°F17.5°C 63.5°F17.5°C 100% 3.3 mph ENE5.3 kmh ENE 5.0 mph8.0 kmh 29.91 in1012.9 mb 0.00 in0.0 mm 0.00 in0.0 mm 0.00 in0.0 mm
02:14 AM 63.5°F17.5°C 63.5°F17.5°C 100% 1.9 mph NE3.1 kmh NE 6.8 mph10.9 kmh 29.91 in1012.9 mb 0.00 in0.0 mm 0.00 in0.0 mm 0.00 in0.0 mm
02:08 AM 63.3°F17.4°C 63.3°F17.4°C 100% 4.7 mph NNE7.6 kmh NNE 6.8 mph10.9 kmh 29.91 in1012.9 mb 0.00 in0.0 mm 0.00 in0.0 mm 0.00 in0.0 mm
02:03 AM 63.3°F17.4°C 63.3°F17.4°C 100% 3.6 mph NNE5.8 kmh NNE 5.0 mph8.0 kmh 29.91 in1012.9 mb 0.00 in0.0 mm 0.00 in0.0 mm 0.00 in0.0 mm
01:58 AM 63.1°F17.3°C 63.1°F17.3°C 100% 2.2 mph NNE3.5 kmh NNE 2.2 mph3.5 kmh 29.91 in1012.9 mb 0.00 in0.0 mm 0.00 in0.0 mm 0.00 in0.0 mm
01:53 AM 63.1°F17.3°C 63.1°F17.3°C 100% Calm Calm -- 29.91 in1012.9 mb 0.00 in0.0 mm 0.00 in0.0 mm 0.00 in0.0 mm
01:47 AM 63.5°F17.5°C 63.5°F17.5°C 100% Calm Calm -- 29.91 in1012.9 mb 0.00 in0.0 mm 0.00 in0.0 mm 0.00 in0.0 mm
01:42 AM 63.5°F17.5°C 63.5°F17.5°C 100% Calm Calm -- 29.91 in1012.9 mb 0.00 in0.0 mm 0.00 in0.0 mm 0.00 in0.0 mm
01:36 AM 63.9°F17.7°C 63.9°F17.7°C 100% Calm Calm -- 29.91 in1012.9 mb 0.00 in0.0 mm 0.00 in0.0 mm 0.00 in0.0 mm
01:31 AM 63.9°F17.7°C 63.9°F17.7°C 100% Calm Calm -- 29.91 in1012.9 mb 0.00 in0.0 mm 0.00 in0.0 mm 0.00 in0.0 mm
01:26 AM 64.0°F17.8°C 64.0°F17.8°C 100% Calm Calm -- 29.91 in1012.9 mb 0.00 in0.0 mm 0.00 in0.0 mm 0.00 in0.0 mm
01:21 AM 64.2°F17.9°C 64.2°F17.9°C 100% Calm Calm -- 29.91 in1012.9 mb 0.00 in0.0 mm 0.00 in0.0 mm 0.00 in0.0 mm
01:16 AM 64.2°F17.9°C 64.2°F17.9°C 100% Calm Calm 1.8 mph2.9 kmh 29.91 in1012.9 mb 0.00 in0.0 mm 0.00 in0.0 mm 0.00 in0.0 mm
01:11 AM 64.4°F18.0°C 64.4°F18.0°C 100% Calm Calm 1.8 mph2.9 kmh 29.91 in1012.9 mb 0.00 in0.0 mm 0.00 in0.0 mm 0.00 in0.0 mm
01:06 AM 64.2°F17.9°C 64.2°F17.9°C 100% Calm Calm -- 29.91 in1012.9 mb 0.00 in0.0 mm 0.00 in0.0 mm 0.00 in0.0 mm
01:01 AM 64.2°F17.9°C 64.2°F17.9°C 100% Calm Calm 7.2 mph11.6 kmh 29.91 in1012.9 mb 0.00 in0.0 mm 0.00 in0.0 mm 0.00 in0.0 mm
12:56 AM 64.2°F17.9°C 64.2°F17.9°C 100% Calm Calm 7.2 mph11.6 kmh 29.91 in1012.9 mb 0.00 in0.0 mm 0.00 in0.0 mm 0.00 in0.0 mm
12:51 AM 64.4°F18.0°C 64.4°F18.0°C 100% 1.8 mph NNE2.9 kmh NNE 1.8 mph2.9 kmh 29.91 in1012.9 mb 0.00 in0.0 mm 0.00 in0.0 mm 0.00 in0.0 mm
12:44 AM 64.6°F18.1°C 64.6°F18.1°C 100% Calm Calm -- 29.91 in1012.9 mb 0.00 in0.0 mm 0.00 in0.0 mm 0.00 in0.0 mm
12:39 AM 64.6°F18.1°C 64.6°F18.1°C 100% Calm Calm -- 29.91 in1012.9 mb 0.00 in0.0 mm 0.00 in0.0 mm 0.00 in0.0 mm
12:34 AM 64.8°F18.2°C 64.8°F18.2°C 100% Calm Calm -- 29.91 in1012.9 mb 0.00 in0.0 mm 0.00 in0.0 mm 0.00 in0.0 mm
12:29 AM 64.8°F18.2°C 64.8°F18.2°C 100% Calm Calm -- 29.91 in1012.9 mb 0.00 in0.0 mm 0.00 in0.0 mm 0.00 in0.0 mm
12:24 AM 64.9°F18.3°C 64.9°F18.3°C 100% Calm Calm -- 29.91 in1012.9 mb 0.00 in0.0 mm 0.00 in0.0 mm 0.00 in0.0 mm
12:19 AM 65.1°F18.4°C 65.1°F18.4°C 100% Calm Calm -- 29.91 in1012.9 mb 0.00 in0.0 mm 0.00 in0.0 mm 0.00 in0.0 mm
12:14 AM 65.3°F18.5°C 65.3°F18.5°C 100% Calm Calm -- 29.91 in1012.9 mb 0.00 in0.0 mm 0.00 in0.0 mm 0.00 in0.0 mm
12:09 AM 65.7°F18.7°C 65.7°F18.7°C 100% Calm Calm -- 29.91 in1012.9 mb 0.00 in0.0 mm 0.00 in0.0 mm 0.00 in0.0 mm
12:04 AM 65.8°F18.8°C 65.8°F18.8°C 100% Calm Calm -- 29.91 in1012.9 mb 0.00 in0.0 mm 0.00 in0.0 mm 0.00 in0.0 mm